Time;durP1;ratioP1;P1;durP2;ratioP2;P2;SDS_P1;SDS_P2;PMS_P1;PMS_P2;Temp;Humidity;BMP_temperature;BMP_pressure;BME280_temperature;BME280_humidity;BME280_pressure;Samples;Min_cycle;Max_cycle;Signal;HPM_P1;HPM_P2
2022/11/14 00:01:59;;;;;;;1999.90;999.90;;;12.80;99.90;;;;;;5026483;28;20040;-83
2022/11/14 00:04:25;;;;;;;1999.90;999.90;;;12.90;99.90;;;;;;5032278;28;20033;-83
2022/11/14 00:06:50;;;;;;;1999.90;999.90;;;12.80;99.90;;;;;;5030797;28;20033;-83
2022/11/14 00:09:16;;;;;;;1999.90;999.90;;;12.80;99.90;;;;;;5031687;28;20056;-83
2022/11/14 00:11:41;;;;;;;1999.90;999.90;;;12.70;99.90;;;;;;5031848;28;20037;-83
2022/11/14 00:14:09;;;;;;;1999.90;999.90;;;12.70;99.90;;;;;;5014230;28;20072;-83
2022/11/14 00:16:34;;;;;;;1999.90;999.90;;;12.80;99.90;;;;;;5025649;28;20034;-83
2022/11/14 00:19:00;;;;;;;1999.90;999.90;;;12.70;99.90;;;;;;4992591;28;20536;-83
2022/11/14 00:21:26;;;;;;;1999.90;999.90;;;12.70;99.90;;;;;;4974634;28;20031;-83
2022/11/14 00:23:51;;;;;;;1999.90;999.90;;;12.70;99.90;;;;;;4992442;28;20105;-83
2022/11/14 00:26:17;;;;;;;1999.90;999.90;;;12.70;99.90;;;;;;4992375;28;20058;-83
2022/11/14 00:28:43;;;;;;;1999.90;999.90;;;12.60;99.90;;;;;;4992360;28;20023;-83
2022/11/14 00:31:10;;;;;;;1999.90;999.90;;;12.60;99.90;;;;;;4992473;28;20041;-83
2022/11/14 00:33:36;;;;;;;1999.90;999.90;;;12.60;99.90;;;;;;4992370;28;20030;-83
2022/11/14 00:36:02;;;;;;;1999.90;999.90;;;12.60;99.90;;;;;;4992660;28;20497;-82
2022/11/14 00:38:27;;;;;;;1999.90;999.90;;;12.50;99.90;;;;;;4974585;28;20027;-82
2022/11/14 00:40:53;;;;;;;1999.90;999.90;;;12.50;99.90;;;;;;4992125;28;20037;-83
2022/11/14 00:43:19;;;;;;;1999.90;999.90;;;12.50;99.90;;;;;;4974754;28;20050;-83
2022/11/14 00:45:46;;;;;;;1999.90;999.90;;;12.40;99.90;;;;;;5011505;28;20018;-83
2022/11/14 00:48:12;;;;;;;1999.90;999.90;;;12.40;99.90;;;;;;4994246;28;20080;-83
2022/11/14 00:50:38;;;;;;;1999.90;999.90;;;12.30;99.90;;;;;;5011879;28;20030;-83
2022/11/14 00:53:04;;;;;;;1999.90;999.90;;;12.30;99.90;;;;;;5012879;28;20026;-83
2022/11/14 00:55:29;;;;;;;1999.90;999.90;;;12.20;99.90;;;;;;5015231;28;20053;-83
2022/11/14 00:57:55;;;;;;;1999.90;999.90;;;12.20;99.90;;;;;;5015453;28;20149;-83
2022/11/14 01:00:21;;;;;;;1999.90;999.90;;;12.10;99.90;;;;;;5015791;28;20018;-83
2022/11/14 01:02:46;;;;;;;1999.90;999.90;;;12.10;99.90;;;;;;5033755;28;20034;-83
2022/11/14 01:05:12;;;;;;;1999.90;999.90;;;12.00;99.90;;;;;;5034943;28;20040;-83
2022/11/14 01:07:38;;;;;;;1999.90;999.90;;;11.90;99.90;;;;;;5033939;28;20426;-82
2022/11/14 01:10:04;;;;;;;1999.90;999.90;;;11.90;99.90;;;;;;5034919;28;20066;-83
2022/11/14 01:12:30;;;;;;;1999.90;999.90;;;11.90;99.90;;;;;;5017009;28;20033;-83
2022/11/14 01:14:55;;;;;;;1999.90;999.90;;;11.90;99.90;;;;;;5034891;28;20151;-83
2022/11/14 01:17:21;;;;;;;1999.90;999.90;;;11.90;99.90;;;;;;5025179;28;20469;-82
2022/11/14 01:19:46;;;;;;;1999.90;999.90;;;12.00;99.90;;;;;;5014776;28;20026;-83
2022/11/14 01:22:12;;;;;;;1999.90;999.90;;;11.90;99.90;;;;;;5014695;28;20034;-82
2022/11/14 01:24:38;;;;;;;1999.90;999.90;;;11.90;99.90;;;;;;5014556;28;20048;-83
2022/11/14 01:27:03;;;;;;;1999.90;999.90;;;11.90;99.90;;;;;;5014806;28;20030;-83
2022/11/14 01:29:29;;;;;;;1999.90;999.90;;;11.90;99.90;;;;;;5014605;28;20511;-83
2022/11/14 01:31:55;;;;;;;1999.90;999.90;;;11.90;99.90;;;;;;5014905;28;20037;-83
2022/11/14 01:34:21;;;;;;;1999.90;999.90;;;11.80;99.90;;;;;;5014976;28;20026;-83
2022/11/14 01:36:47;;;;;;;1999.90;999.90;;;11.80;99.90;;;;;;5014672;28;20033;-83
2022/11/14 01:39:12;;;;;;;1999.90;999.90;;;11.80;99.90;;;;;;5014364;28;20029;-83
2022/11/14 01:41:38;;;;;;;1999.90;999.90;;;11.80;99.90;;;;;;5014667;28;20034;-83
2022/11/14 01:44:36;;;;;;;1999.90;999.90;;;11.70;99.90;;;;;;5014649;28;20076;-83
2022/11/14 01:47:02;;;;;;;1999.90;999.90;;;11.80;99.90;;;;;;5014312;28;20022;-83
2022/11/14 01:49:38;;;;;;;1999.90;999.90;;;11.70;99.90;;;;;;5014302;28;20030;-83
2022/11/14 01:52:10;;;;;;;1999.90;999.90;;;11.70;99.90;;;;;;5014498;28;20033;-82
2022/11/14 01:54:40;;;;;;;1999.90;999.90;;;11.70;99.90;;;;;;5014126;28;20042;-83
2022/11/14 01:57:07;;;;;;;1999.90;999.90;;;11.80;99.90;;;;;;5014321;28;20556;-83
2022/11/14 01:59:40;;;;;;;1999.90;999.90;;;11.80;99.90;;;;;;5014216;28;20054;-83
2022/11/14 02:02:12;;;;;;;1999.90;999.90;;;11.80;99.90;;;;;;5014158;28;20098;-82
2022/11/14 02:04:44;;;;;;;1999.90;999.90;;;11.80;99.90;;;;;;4995659;28;20026;-83
2022/11/14 02:07:11;;;;;;;1999.90;999.90;;;11.80;99.90;;;;;;5013191;28;20388;-82
2022/11/14 02:09:39;;;;;;;1999.90;999.90;;;11.70;99.90;;;;;;5013980;28;20403;-83
2022/11/14 02:12:08;;;;;;;1999.90;999.90;;;11.80;99.90;;;;;;5014159;28;20014;-83
2022/11/14 02:14:36;;;;;;;1999.90;999.90;;;11.80;99.90;;;;;;5014096;28;20477;-83
2022/11/14 02:17:02;;;;;;;1999.90;999.90;;;11.70;99.90;;;;;;5013348;28;20041;-83
2022/11/14 02:19:56;;;;;;;1999.90;999.90;;;11.70;99.90;;;;;;5013681;28;20026;-83
2022/11/14 02:22:22;;;;;;;1999.90;999.90;;;11.70;99.90;;;;;;5013587;28;20436;-83
2022/11/14 02:24:48;;;;;;;1999.90;999.90;;;11.80;99.90;;;;;;5013585;28;20497;-83
2022/11/14 02:27:15;;;;;;;1999.90;999.90;;;11.70;99.90;;;;;;5013867;28;20041;-83
2022/11/14 02:29:41;;;;;;;1999.90;999.90;;;11.70;99.90;;;;;;5013713;28;20029;-83
2022/11/14 02:32:07;;;;;;;1999.90;999.90;;;11.70;99.90;;;;;;5013781;28;20412;-83
2022/11/14 02:34:33;;;;;;;1999.90;999.90;;;11.70;99.90;;;;;;5013472;28;20037;-83
2022/11/14 02:36:58;;;;;;;1999.90;999.90;;;11.70;99.90;;;;;;5013342;28;20026;-82
2022/11/14 02:39:24;;;;;;;1999.90;999.90;;;11.70;99.90;;;;;;5013213;28;20038;-83
2022/11/14 02:41:50;;;;;;;1999.90;999.90;;;11.70;99.90;;;;;;5013737;28;20029;-83
2022/11/14 02:44:17;;;;;;;1999.90;999.90;;;11.70;99.90;;;;;;5013568;28;20022;-83
2022/11/14 02:46:43;;;;;;;1999.90;999.90;;;11.70;99.90;;;;;;5013255;28;20022;-83
2022/11/14 02:49:08;;;;;;;1999.90;999.90;;;11.70;99.90;;;;;;5013100;28;20033;-83
2022/11/14 02:51:34;;;;;;;1999.90;999.90;;;11.70;99.90;;;;;;5013235;28;20057;-83
2022/11/14 02:53:59;;;;;;;1999.90;999.90;;;11.60;99.90;;;;;;5013082;28;20516;-82
2022/11/14 02:56:25;;;;;;;1999.90;999.90;;;11.70;99.90;;;;;;5013297;28;20025;-83
2022/11/14 02:58:51;;;;;;;1999.90;999.90;;;11.70;99.90;;;;;;5013022;28;20549;-83
2022/11/14 03:01:16;;;;;;;1999.90;999.90;;;11.60;99.90;;;;;;5012885;28;20029;-82
2022/11/14 03:03:42;;;;;;;1999.90;999.90;;;11.60;99.90;;;;;;5013202;28;20104;-82
2022/11/14 03:06:08;;;;;;;1999.90;999.90;;;11.60;99.90;;;;;;5013214;28;20032;-82
2022/11/14 03:08:33;;;;;;;1999.90;999.90;;;11.60;99.90;;;;;;4994574;28;20033;-83
2022/11/14 03:11:07;;;;;;;1999.90;999.90;;;11.60;99.90;;;;;;5012888;28;20026;-83
2022/11/14 03:13:33;;;;;;;1999.90;999.90;;;11.60;99.90;;;;;;5012588;28;20482;-83
2022/11/14 03:16:07;;;;;;;1999.90;999.90;;;11.60;99.90;;;;;;5012345;28;20076;-82
2022/11/14 03:18:32;;;;;;;1999.90;999.90;;;11.60;99.90;;;;;;5010630;28;20030;-82
2022/11/14 03:21:05;;;;;;;1999.90;999.90;;;11.60;99.90;;;;;;5012559;28;20516;-83
2022/11/14 03:23:31;;;;;;;1999.90;999.90;;;11.60;99.90;;;;;;4994662;28;20409;-83
2022/11/14 03:26:01;;;;;;;1999.90;999.90;;;11.70;99.90;;;;;;5012677;28;20053;-83
2022/11/14 03:28:27;;;;;;;1999.90;999.90;;;11.70;99.90;;;;;;5012733;28;20029;-82
2022/11/14 03:30:53;;;;;;;1999.90;999.90;;;11.70;99.90;;;;;;4995108;28;20551;-82
2022/11/14 03:33:19;;;;;;;1999.90;999.90;;;11.70;99.90;;;;;;5012614;28;20053;-82
2022/11/14 03:35:44;;;;;;;1999.90;999.90;;;11.70;99.90;;;;;;5012544;28;20026;-83
2022/11/14 03:38:10;;;;;;;1999.90;999.90;;;11.70;99.90;;;;;;5012548;28;20037;-82
2022/11/14 03:40:39;;;;;;;1999.90;999.90;;;11.70;99.90;;;;;;5012954;28;20080;-82
2022/11/14 03:43:04;;;;;;;1999.90;999.90;;;11.70;99.90;;;;;;5012580;28;20538;-83
2022/11/14 03:45:30;;;;;;;1999.90;999.90;;;11.70;99.90;;;;;;5012622;28;20018;-83
2022/11/14 03:47:56;;;;;;;1999.90;999.90;;;11.70;99.90;;;;;;4994526;28;20037;-82
2022/11/14 03:50:21;;;;;;;1999.90;999.90;;;11.70;99.90;;;;;;5012689;28;20048;-83
2022/11/14 03:52:50;;;;;;;1999.90;999.90;;;11.80;99.90;;;;;;5012315;28;20117;-82
2022/11/14 03:55:16;;;;;;;1999.90;999.90;;;11.80;99.90;;;;;;5012289;28;20128;-82
2022/11/14 03:57:41;;;;;;;1999.90;999.90;;;11.80;99.90;;;;;;5012312;28;20144;-82
2022/11/14 04:00:08;;;;;;;1999.90;999.90;;;11.80;99.90;;;;;;5012273;28;20021;-83
2022/11/14 04:02:33;;;;;;;1999.90;999.90;;;11.90;99.90;;;;;;5012192;28;20032;-82
2022/11/14 04:04:59;;;;;;;1999.90;999.90;;;11.80;99.90;;;;;;5012352;28;20022;-82
2022/11/14 04:07:25;;;;;;;1999.90;999.90;;;11.80;99.90;;;;;;5011954;28;20104;-82
2022/11/14 04:09:50;;;;;;;1999.90;999.90;;;11.80;99.90;;;;;;5011458;28;20041;-83
2022/11/14 04:12:17;;;;;;;1999.90;999.90;;;11.80;99.90;;;;;;5012225;28;20034;-83
2022/11/14 04:14:42;;;;;;;1999.90;999.90;;;11.80;99.90;;;;;;5011936;28;20057;-83
2022/11/14 04:17:08;;;;;;;1999.90;999.90;;;11.90;99.90;;;;;;5010864;28;20037;-82
2022/11/14 04:19:34;;;;;;;1999.90;999.90;;;11.90;99.90;;;;;;4997526;28;20482;-83
2022/11/14 04:21:59;;;;;;;1999.90;999.90;;;11.90;99.90;;;;;;4992548;28;20034;-83
2022/11/14 04:24:25;;;;;;;1999.90;999.90;;;11.90;99.90;;;;;;4974763;28;20026;-83
2022/11/14 04:26:51;;;;;;;1999.90;999.90;;;11.90;99.90;;;;;;4992482;28;20398;-83
2022/11/14 04:29:16;;;;;;;1999.90;999.90;;;11.90;99.90;;;;;;4995359;28;20505;-82
2022/11/14 04:31:42;;;;;;;1999.90;999.90;;;11.90;99.90;;;;;;4996244;28;20034;-82
2022/11/14 04:34:07;;;;;;;1999.90;999.90;;;11.90;99.90;;;;;;4978799;28;20026;-82
2022/11/14 04:36:33;;;;;;;1999.90;999.90;;;11.80;99.90;;;;;;4996422;28;20031;-83
2022/11/14 04:38:59;;;;;;;1999.90;999.90;;;11.80;99.90;;;;;;4995819;28;20441;-82
2022/11/14 04:41:24;;;;;;;1999.90;999.90;;;11.80;99.90;;;;;;4996121;28;20117;-83
2022/11/14 04:43:50;;;;;;;1999.90;999.90;;;11.80;99.90;;;;;;4999853;28;20033;-82
2022/11/14 04:46:15;;;;;;;1999.90;999.90;;;11.70;99.90;;;;;;5015815;28;20034;-82
2022/11/14 04:48:41;;;;;;;1999.90;999.90;;;11.60;99.90;;;;;;5015710;28;20030;-82
2022/11/14 04:51:07;;;;;;;1999.90;999.90;;;11.60;99.90;;;;;;4998266;28;20081;-83
2022/11/14 04:53:32;;;;;;;1999.90;999.90;;;11.60;99.90;;;;;;5015170;28;20080;-83
2022/11/14 04:55:58;;;;;;;1999.90;999.90;;;11.50;99.90;;;;;;5016039;28;20481;-82
2022/11/14 04:58:24;;;;;;;1999.90;999.90;;;11.50;99.90;;;;;;5016205;28;20037;-82
2022/11/14 05:00:49;;;;;;;1999.90;999.90;;;11.50;99.90;;;;;;5019892;28;20044;-83
2022/11/14 05:03:15;;;;;;;1999.90;999.90;;;11.50;99.90;;;;;;5034248;28;20060;-83
2022/11/14 05:05:40;;;;;;;1999.90;999.90;;;11.50;99.90;;;;;;5034938;28;20063;-83
2022/11/14 05:08:06;;;;;;;1999.90;999.90;;;11.50;99.90;;;;;;5035096;28;20033;-82
2022/11/14 05:10:31;;;;;;;1999.90;999.90;;;11.50;99.90;;;;;;5034029;28;20056;-83
2022/11/14 05:12:57;;;;;;;1999.90;999.90;;;11.50;99.90;;;;;;5034469;28;20032;-83
2022/11/14 05:15:23;;;;;;;1999.90;999.90;;;11.60;99.90;;;;;;5034892;28;20148;-82
2022/11/14 05:17:48;;;;;;;1999.90;999.90;;;11.60;99.90;;;;;;5034315;28;20029;-82
2022/11/14 05:20:14;;;;;;;1999.90;999.90;;;11.60;99.90;;;;;;5015363;28;20117;-82
2022/11/14 05:22:40;;;;;;;1999.90;999.90;;;11.60;99.90;;;;;;5015014;28;20025;-82
2022/11/14 05:25:06;;;;;;;1999.90;999.90;;;11.60;99.90;;;;;;5014821;28;20030;-82
2022/11/14 05:27:32;;;;;;;1999.90;999.90;;;11.60;99.90;;;;;;5013932;28;20060;-82
2022/11/14 05:29:57;;;;;;;1999.90;999.90;;;11.70;99.90;;;;;;5014899;28;20061;-82
2022/11/14 05:32:23;;;;;;;1999.90;999.90;;;11.60;99.90;;;;;;5015356;28;20045;-82
2022/11/14 05:34:49;;;;;;;1999.90;999.90;;;11.70;99.90;;;;;;5014942;28;20444;-83
2022/11/14 05:37:14;;;;;;;1999.90;999.90;;;11.60;99.90;;;;;;5014435;28;20511;-82
2022/11/14 05:39:40;;;;;;;1999.90;999.90;;;11.60;99.90;;;;;;5014578;28;20112;-83
2022/11/14 05:42:05;;;;;;;1999.90;999.90;;;11.60;99.90;;;;;;5014957;28;20045;-83
2022/11/14 05:44:31;;;;;;;1999.90;999.90;;;11.50;99.90;;;;;;5014626;28;20104;-83
2022/11/14 05:46:57;;;;;;;1999.90;999.90;;;11.50;99.90;;;;;;5014339;28;20491;-83
2022/11/14 05:49:22;;;;;;;1999.90;999.90;;;11.50;99.90;;;;;;5014384;28;20101;-83
2022/11/14 05:51:48;;;;;;;1999.90;999.90;;;11.50;99.90;;;;;;5014521;28;20022;-83
2022/11/14 05:54:14;;;;;;;1999.90;999.90;;;11.50;99.90;;;;;;4996379;28;20053;-81
2022/11/14 05:56:39;;;;;;;1999.90;999.90;;;11.50;99.90;;;;;;5014460;28;20022;-83
2022/11/14 05:59:05;;;;;;;1999.90;999.90;;;11.50;99.90;;;;;;5014097;28;20030;-83
2022/11/14 06:01:31;;;;;;;1999.90;999.90;;;11.50;99.90;;;;;;5014060;28;20508;-82
2022/11/14 06:03:56;;;;;;;1999.90;999.90;;;11.50;99.90;;;;;;5014384;28;20509;-82
2022/11/14 06:06:22;;;;;;;1999.90;999.90;;;11.60;99.90;;;;;;5014713;28;20109;-82
2022/11/14 06:08:48;;;;;;;1999.90;999.90;;;11.60;99.90;;;;;;5013928;28;20101;-82
2022/11/14 06:11:17;;;;;;;1999.90;999.90;;;11.70;99.90;;;;;;5013758;28;20294;-82
2022/11/14 06:13:43;;;;;;;1999.90;999.90;;;11.70;99.90;;;;;;5014088;28;20030;-82
2022/11/14 06:16:14;;;;;;;1999.90;999.90;;;11.70;99.90;;;;;;5014111;28;20397;-82
2022/11/14 06:18:40;;;;;;;1999.90;999.90;;;11.70;99.90;;;;;;5013898;28;20026;-82
2022/11/14 06:21:15;;;;;;;1999.90;999.90;;;11.80;99.90;;;;;;5013848;28;20032;-82
2022/11/14 06:23:41;;;;;;;1999.90;999.90;;;11.80;99.90;;;;;;5011905;28;20026;-82
2022/11/14 06:26:21;;;;;;;1999.90;999.90;;;11.80;99.90;;;;;;5013358;28;20481;-83
2022/11/14 06:28:48;;;;;;;1999.90;999.90;;;11.80;99.90;;;;;;5012163;28;20018;-82
2022/11/14 06:31:14;;;;;;;1999.90;999.90;;;11.80;99.90;;;;;;5013476;28;20481;-82
2022/11/14 06:33:39;;;;;;;1999.90;999.90;;;11.70;99.90;;;;;;5013538;28;20040;-82
2022/11/14 06:36:07;;;;;;;1999.90;999.90;;;11.70;99.90;;;;;;5013016;28;20026;-83
2022/11/14 06:38:34;;;;;;;1999.90;999.90;;;11.70;99.90;;;;;;5012972;28;20076;-83
2022/11/14 06:41:08;;;;;;;1999.90;999.90;;;11.80;99.90;;;;;;5013500;28;20381;-82
2022/11/14 06:43:37;;;;;;;1999.90;999.90;;;11.80;99.90;;;;;;5013366;28;20030;-83
2022/11/14 06:46:03;;;;;;;1999.90;999.90;;;11.80;99.90;;;;;;5013321;28;20026;-83
2022/11/14 06:48:30;;;;;;;1999.90;999.90;;;11.80;99.90;;;;;;5013239;28;20054;-84
2022/11/14 06:50:57;;;;;;;1999.90;999.90;;;11.80;99.90;;;;;;5013339;28;20056;-82
2022/11/14 06:53:24;;;;;;;1999.90;999.90;;;11.80;99.90;;;;;;5011944;28;20478;-82
2022/11/14 06:56:01;;;;;;;1999.90;999.90;;;11.80;99.90;;;;;;5012539;28;20057;-82
2022/11/14 06:58:29;;;;;;;1999.90;999.90;;;11.80;99.90;;;;;;5013212;28;20029;-82
2022/11/14 07:00:54;;;;;;;1999.90;999.90;;;11.80;99.90;;;;;;5012091;28;20469;-82
2022/11/14 07:03:21;;;;;;;1999.90;999.90;;;11.80;99.90;;;;;;5012705;28;20056;-82
2022/11/14 07:05:47;;;;;;;1999.90;999.90;;;11.80;99.90;;;;;;5009787;28;20034;-82
2022/11/14 07:08:12;;;;;;;1999.90;999.90;;;11.80;99.90;;;;;;5012367;28;20449;-82
2022/11/14 07:10:38;;;;;;;1999.90;999.90;;;11.80;99.90;;;;;;5002301;28;20034;-82
2022/11/14 07:13:04;;;;;;;1999.90;999.90;;;11.80;99.90;;;;;;5012385;28;20504;-82
2022/11/14 07:15:30;;;;;;;1999.90;999.90;;;11.80;99.90;;;;;;5011274;28;20033;-82
2022/11/14 07:17:56;;;;;;;1999.90;999.90;;;11.90;99.90;;;;;;5011631;28;20077;-83
2022/11/14 07:20:22;;;;;;;1999.90;999.90;;;11.90;99.90;;;;;;5012572;28;20026;-82
2022/11/14 07:22:48;;;;;;;1999.90;999.90;;;11.90;99.90;;;;;;5010962;28;20037;-81
2022/11/14 07:25:13;;;;;;;1999.90;999.90;;;11.90;99.90;;;;;;5011558;28;20033;-81
2022/11/14 07:27:39;;;;;;;1999.90;999.90;;;11.90;99.90;;;;;;5011442;28;20157;-80
2022/11/14 07:30:05;;;;;;;1999.90;999.90;;;11.90;99.90;;;;;;5011364;28;20045;-80
2022/11/14 07:32:31;;;;;;;1999.90;999.90;;;12.00;99.90;;;;;;5017053;28;20035;-80
2022/11/14 07:34:57;;;;;;;1999.90;999.90;;;12.00;99.90;;;;;;5031369;28;20026;-80
2022/11/14 07:37:23;;;;;;;1999.90;999.90;;;12.10;99.90;;;;;;5011191;28;20046;-80
2022/11/14 07:39:48;;;;;;;1999.90;999.90;;;12.20;99.90;;;;;;5011223;28;20041;-80
2022/11/14 07:42:14;;;;;;;1999.90;999.90;;;12.20;99.90;;;;;;5010407;28;20030;-80
2022/11/14 07:44:40;;;;;;;1999.90;999.90;;;12.20;99.90;;;;;;4992888;28;20022;-81
2022/11/14 07:47:05;;;;;;;1999.90;999.90;;;12.20;99.90;;;;;;5002500;28;20038;-80
2022/11/14 07:49:31;;;;;;;1999.90;999.90;;;12.20;99.90;;;;;;5011354;28;20392;-80
2022/11/14 07:51:56;;;;;;;1999.90;999.90;;;12.20;99.90;;;;;;5010001;28;20029;-83
2022/11/14 07:54:22;;;;;;;1999.90;999.90;;;12.30;99.90;;;;;;5005984;28;20057;-81
2022/11/14 07:56:48;;;;;;;1999.90;999.90;;;12.30;99.90;;;;;;4990591;28;20042;-82
2022/11/14 07:59:13;;;;;;;1999.90;999.90;;;12.30;99.90;;;;;;5010041;28;20093;-81
2022/11/14 08:01:39;;;;;;;1999.90;999.90;;;12.30;99.90;;;;;;5008456;28;20145;-80
2022/11/14 08:04:04;;;;;;;1999.90;999.90;;;12.30;99.90;;;;;;5013612;28;20041;-86
2022/11/14 08:06:30;;;;;;;1999.90;999.90;;;12.30;99.90;;;;;;5014199;28;20057;-80
2022/11/14 08:08:56;;;;;;;1999.90;999.90;;;12.40;99.90;;;;;;5012858;28;20108;-82
2022/11/14 08:11:46;;;;;;;1999.90;999.90;;;12.40;99.90;;;;;;5011207;28;20791;-82
2022/11/14 08:14:07;;;;;;;1999.90;999.90;;;12.70;99.90;;;;;;5003950;28;20121;-80
2022/11/14 08:16:33;;;;;;;1999.90;999.90;;;12.60;99.90;;;;;;5013473;28;20137;-78
2022/11/14 08:18:59;;;;;;;1999.90;999.90;;;12.70;99.90;;;;;;5012828;28;20026;-81
2022/11/14 08:21:24;;;;;;;1999.90;999.90;;;13.30;99.90;;;;;;5010632;28;20037;-83
2022/11/14 08:23:50;;;;;;;1999.90;999.90;;;13.60;99.90;;;;;;5010169;28;20029;-81
2022/11/14 08:26:16;;;;;;;1999.90;999.90;;;14.00;99.90;;;;;;5013350;28;20060;-82
2022/11/14 08:28:41;;;;;;;1999.90;999.90;;;14.40;99.90;;;;;;5013311;28;20049;-81
2022/11/14 08:31:09;;;;;;;1999.90;999.90;;;14.50;99.90;;;;;;5012741;28;20033;-79
2022/11/14 08:33:34;;;;;;;1999.90;999.90;;;14.50;99.90;;;;;;5006988;28;20092;-81
2022/11/14 08:36:05;;;;;;;1999.90;999.90;;;14.50;99.90;;;;;;5016318;28;20481;-78
2022/11/14 08:38:31;;;;;;;1999.90;999.90;;;14.50;99.90;;;;;;5021557;28;20041;-80
2022/11/14 08:41:01;;;;;;;1999.90;999.90;;;14.40;99.90;;;;;;5015199;28;20033;-80
2022/11/14 08:43:28;;;;;;;1999.90;999.90;;;14.40;99.90;;;;;;5013475;28;20022;-79
2022/11/14 08:45:59;;;;;;;1999.90;999.90;;;14.40;99.90;;;;;;5010353;28;20120;-79
2022/11/14 08:48:25;;;;;;;1999.90;999.90;;;14.40;99.90;;;;;;5013720;28;20025;-81
2022/11/14 08:50:51;;;;;;;1999.90;999.90;;;14.30;99.90;;;;;;5011931;28;20038;-80
2022/11/14 08:53:16;;;;;;;1999.90;999.90;;;14.30;99.90;;;;;;5011169;28;20096;-80
2022/11/14 08:55:46;;;;;;;1999.90;999.90;;;14.20;99.90;;;;;;5009361;28;20804;-78
2022/11/14 08:58:12;;;;;;;1999.90;999.90;;;14.20;99.90;;;;;;4992272;28;20029;-84
2022/11/14 09:00:37;;;;;;;1999.90;999.90;;;14.10;99.90;;;;;;5013542;28;20120;-83
2022/11/14 09:03:07;;;;;;;1999.90;999.90;;;14.00;99.90;;;;;;5013395;28;20068;-83
2022/11/14 09:05:34;;;;;;;1999.90;999.90;;;14.00;99.90;;;;;;5013121;28;20041;-84
2022/11/14 09:07:59;;;;;;;1999.90;999.90;;;13.90;99.90;;;;;;5011389;28;20104;-81
2022/11/14 09:10:25;;;;;;;1999.90;999.90;;;14.00;99.90;;;;;;5006028;28;20500;-82
2022/11/14 09:13:00;;;;;;;1999.90;999.90;;;13.90;99.90;;;;;;5004461;28;20113;-79
2022/11/14 09:15:30;;;;;;;1999.90;999.90;;;13.90;99.90;;;;;;5003838;28;20103;-82
2022/11/14 09:17:57;;;;;;;1999.90;999.90;;;13.90;99.90;;;;;;5010769;28;20115;-82
2022/11/14 09:20:23;;;;;;;1999.90;999.90;;;13.90;99.90;;;;;;5014222;28;20444;-83
2022/11/14 09:22:52;;;;;;;1999.90;999.90;;;13.90;99.90;;;;;;5015928;28;20104;-81
2022/11/14 09:25:21;;;;;;;1999.90;999.90;;;13.90;99.90;;;;;;5013657;28;20033;-80
2022/11/14 09:27:47;;;;;;;1999.90;999.90;;;13.90;99.90;;;;;;5020785;28;20083;-80
2022/11/14 09:30:13;;;;;;;1999.90;999.90;;;13.90;99.90;;;;;;4995239;28;20025;-80
2022/11/14 09:32:39;;;;;;;1999.90;999.90;;;13.90;99.90;;;;;;4994851;28;20633;-80
2022/11/14 09:35:05;;;;;;;1999.90;999.90;;;13.90;99.90;;;;;;4999571;28;20041;-80
2022/11/14 09:37:30;;;;;;;1999.90;999.90;;;13.90;99.90;;;;;;4994576;28;20029;-80
2022/11/14 09:39:56;;;;;;;1999.90;999.90;;;14.00;99.90;;;;;;5000449;28;20034;-79
2022/11/14 09:42:51;;;;;;;1999.90;999.90;;;14.00;99.90;;;;;;5017223;28;20054;-79
2022/11/14 09:45:17;;;;;;;1999.90;999.90;;;14.00;99.90;;;;;;5012448;28;20029;-83
2022/11/14 09:47:44;;;;;;;1999.90;999.90;;;14.00;99.90;;;;;;5019322;28;20033;-82
2022/11/14 09:50:20;;;;;;;1999.90;999.90;;;14.00;99.90;;;;;;5020088;28;20076;-80
2022/11/14 09:52:52;;;;;;;1999.90;999.90;;;14.00;99.90;;;;;;5014717;28;20060;-80
2022/11/14 09:55:26;;;;;;;1999.90;999.90;;;14.00;99.90;;;;;;5011320;28;20042;-83
2022/11/14 09:57:52;;;;;;;1999.90;999.90;;;14.00;99.90;;;;;;5014367;28;20559;-80
2022/11/14 10:00:21;;;;;;;1999.90;999.90;;;14.10;99.90;;;;;;5012819;28;20061;-79
2022/11/14 10:02:53;;;;;;;1999.90;999.90;;;14.10;99.90;;;;;;5014563;28;20026;-79
2022/11/14 10:05:40;;;;;;;1999.90;999.90;;;14.10;99.90;;;;;;5010830;28;20041;-80
2022/11/14 10:08:08;;;;;;;1999.90;999.90;;;14.10;99.90;;;;;;5013361;28;20375;-79
2022/11/14 10:10:46;;;;;;;1999.90;999.90;;;14.10;99.90;;;;;;5014957;28;20075;-80
2022/11/14 10:13:58;;;;;;;1999.90;999.90;;;14.10;99.90;;;;;;5009316;28;20032;-81
2022/11/14 10:16:45;;;;;;;1999.90;999.90;;;14.10;99.90;;;;;;5012937;28;20022;-80
2022/11/14 10:19:24;;;;;;;1999.90;999.90;;;14.10;99.90;;;;;;5014097;28;20115;-80
2022/11/14 10:22:02;;;;;;;1999.90;999.90;;;14.20;99.90;;;;;;5008073;28;20022;-80
2022/11/14 10:24:38;;;;;;;1999.90;999.90;;;14.20;99.90;;;;;;5022704;28;20461;-79
2022/11/14 10:27:09;;;;;;;1999.90;999.90;;;14.20;99.90;;;;;;5016825;28;20034;-79
2022/11/14 10:29:41;;;;;;;1999.90;999.90;;;14.30;99.90;;;;;;5009683;28;20568;-78
2022/11/14 10:32:10;;;;;;;1999.90;999.90;;;14.40;99.90;;;;;;5004180;28;20105;-81
2022/11/14 10:34:41;;;;;;;1999.90;999.90;;;14.70;99.90;;;;;;5003365;28;20434;-81
2022/11/14 10:37:51;;;;;;;1999.90;999.90;;;15.10;99.90;;;;;;5003686;28;20088;-80
2022/11/14 10:40:19;;;;;;;1999.90;999.90;;;15.30;99.90;;;;;;4986837;28;20041;-79
2022/11/14 10:42:49;;;;;;;1999.90;999.90;;;15.30;99.90;;;;;;5010520;28;20046;-78
2022/11/14 10:45:21;;;;;;;1999.90;999.90;;;15.30;99.90;;;;;;5012748;28;20492;-80
2022/11/14 10:48:07;;;;;;;1999.90;999.90;;;15.20;99.90;;;;;;4992456;28;20041;-81
2022/11/14 10:50:45;;;;;;;1999.90;999.90;;;15.30;99.90;;;;;;5011298;28;20453;-80
2022/11/14 10:53:25;;;;;;;1999.90;999.90;;;15.00;99.90;;;;;;5010043;28;20117;-80
2022/11/14 10:55:53;;;;;;;1999.90;999.90;;;15.10;99.90;;;;;;4989029;28;20088;-80
2022/11/14 10:58:20;;;;;;;1999.90;999.90;;;15.30;99.90;;;;;;4991844;28;20042;-79
2022/11/14 11:00:45;;;;;;;1999.90;999.90;;;15.30;99.90;;;;;;4991400;28;20041;-78
2022/11/14 11:03:11;;;;;;;1999.90;999.90;;;15.40;99.90;;;;;;4990914;28;20046;-79
2022/11/14 11:05:55;;;;;;;1999.90;999.90;;;15.50;99.90;;;;;;5000867;28;20025;-80
2022/11/14 11:11:30;;;;;;;1999.90;999.90;;;15.50;99.90;;;;;;4991376;28;20080;-80
2022/11/14 11:13:59;;;;;;;1999.90;999.90;;;15.50;99.90;;;;;;4978978;28;20071;-81
2022/11/14 11:16:26;;;;;;;1999.90;999.90;;;15.60;99.90;;;;;;4978114;28;20351;-80
2022/11/14 11:18:52;;;;;;;1999.90;999.90;;;15.60;99.90;;;;;;4985568;28;20026;-79
2022/11/14 11:21:21;;;;;;;1999.90;999.90;;;15.70;99.90;;;;;;4981337;28;20029;-80
2022/11/14 11:23:55;;;;;;;1999.90;999.90;;;15.90;99.90;;;;;;4982614;28;20073;-79
2022/11/14 11:26:23;;;;;;;1999.90;999.90;;;16.30;99.90;;;;;;4978279;28;20453;-79
2022/11/14 11:29:10;;;;;;;1999.90;999.90;;;16.40;99.90;;;;;;4981572;28;20040;-79
2022/11/14 11:32:06;;;;;;;1999.90;999.90;;;16.70;99.90;;;;;;4973449;28;20041;-79
2022/11/14 11:34:33;;;;;;;1999.90;999.90;;;16.70;99.90;;;;;;4973778;28;20038;-81
2022/11/14 11:37:24;;;;;;;1999.90;999.90;;;15.70;99.90;;;;;;4989681;28;20137;-82
2022/11/14 11:40:01;;;;;;;1999.90;999.90;;;15.20;99.90;;;;;;4980902;28;20038;-82
2022/11/14 11:42:48;;;;;;;1999.90;999.90;;;14.80;99.90;;;;;;4993177;28;20580;-83
2022/11/14 11:45:17;;;;;;;1999.90;999.90;;;15.20;99.90;;;;;;4997525;28;20086;-81
2022/11/14 11:47:55;;;;;;;1999.90;999.90;;;15.30;99.90;;;;;;4993858;28;20030;-81
2022/11/14 11:50:23;;;;;;;1999.90;999.90;;;15.30;99.90;;;;;;5001346;28;20026;-83
2022/11/14 11:53:15;;;;;;;1999.90;999.90;;;15.40;99.90;;;;;;4998237;28;20022;-80
2022/11/14 11:55:45;;;;;;;1999.90;999.90;;;15.30;99.90;;;;;;5010151;28;20034;-82
2022/11/14 11:58:16;;;;;;;1999.90;999.90;;;15.30;99.90;;;;;;5017755;28;20115;-82
2022/11/14 12:00:42;;;;;;;1999.90;999.90;;;15.30;99.90;;;;;;5016585;28;20071;-82
2022/11/14 12:03:13;;;;;;;1999.90;999.90;;;15.30;99.90;;;;;;5015463;28;20026;-82
2022/11/14 12:06:16;;;;;;;1999.90;999.90;;;15.10;99.90;;;;;;5013065;28;20029;-77
2022/11/14 12:09:15;;;;;;;1999.90;999.90;;;15.00;99.90;;;;;;4959057;28;20615;-79